Time;durP1;ratioP1;P1;durP2;ratioP2;P2;SDS_P1;SDS_P2;PMS_P1;PMS_P2;Temp;Humidity;BMP_temperature;BMP_pressure;BME280_temperature;BME280_humidity;BME280_pressure;Samples;Min_cycle;Max_cycle;Signal;HPM_P1;HPM_P2
2021/12/02 00:00:45;;;;;;;10.10;2.57;;;7.70;99.90;;;;;;4978284;28;20648;-59
2021/12/02 00:03:12;;;;;;;8.17;2.63;;;7.70;99.90;;;;;;4974271;28;20291;-58
2021/12/02 00:05:37;;;;;;;3.03;2.57;;;7.70;99.90;;;;;;4976896;28;20269;-56
2021/12/02 00:08:03;;;;;;;4.57;2.50;;;7.70;99.90;;;;;;4976845;28;20469;-56
2021/12/02 00:10:31;;;;;;;3.20;2.20;;;7.80;99.90;;;;;;4981889;28;20185;-58
2021/12/02 00:12:58;;;;;;;2.77;2.20;;;7.80;99.90;;;;;;4978886;28;20186;-60
2021/12/02 00:15:32;;;;;;;4.27;2.00;;;7.80;99.90;;;;;;4977088;28;20444;-59
2021/12/02 00:23:28;;;;;;;3.27;2.30;;;7.70;99.90;;;;;;4977771;28;20470;-57
2021/12/02 00:25:56;;;;;;;7.37;2.20;;;7.70;99.90;;;;;;4972462;28;20480;-58
2021/12/02 00:28:25;;;;;;;3.13;2.20;;;7.70;99.90;;;;;;4980538;28;20457;-58
2021/12/02 00:30:53;;;;;;;3.30;2.23;;;7.70;99.90;;;;;;4963332;28;20492;-59
2021/12/02 00:33:19;;;;;;;10.77;2.80;;;7.70;99.90;;;;;;4976751;28;20434;-58
2021/12/02 00:35:44;;;;;;;3.93;2.20;;;7.80;99.90;;;;;;4977462;28;20460;-57
2021/12/02 00:38:11;;;;;;;4.13;1.97;;;7.80;99.90;;;;;;4974460;28;20460;-56
2021/12/02 00:40:37;;;;;;;2.43;1.93;;;7.80;99.90;;;;;;4976671;28;20193;-57
2021/12/02 00:43:03;;;;;;;3.87;2.10;;;7.80;99.90;;;;;;4977057;28;20461;-55
2021/12/02 00:45:29;;;;;;;3.07;1.83;;;7.80;99.90;;;;;;4977639;28;20460;-52
2021/12/02 00:47:54;;;;;;;4.13;1.83;;;7.80;99.90;;;;;;4976322;28;20247;-56
2021/12/02 00:50:20;;;;;;;8.40;2.20;;;7.80;99.90;;;;;;4975669;28;20516;-57
2021/12/02 00:52:49;;;;;;;3.13;1.70;;;7.80;99.90;;;;;;4974515;28;20194;-59
2021/12/02 00:55:15;;;;;;;2.93;2.20;;;7.70;99.90;;;;;;4975274;28;20433;-57
2021/12/02 00:57:42;;;;;;;4.97;2.40;;;7.70;99.90;;;;;;4975078;28;20449;-59
2021/12/02 01:00:09;;;;;;;1.80;1.47;;;7.70;99.90;;;;;;4981691;28;20197;-58
2021/12/02 01:02:37;;;;;;;3.50;1.70;;;7.70;99.90;;;;;;4980623;28;20448;-56
2021/12/02 01:05:03;;;;;;;6.90;2.30;;;7.70;99.90;;;;;;4980414;28;21414;-59
2021/12/02 01:07:29;;;;;;;3.10;1.67;;;7.70;99.90;;;;;;4980451;28;20472;-58
2021/12/02 01:09:55;;;;;;;8.80;2.20;;;7.70;99.90;;;;;;4982701;28;20989;-58
2021/12/02 01:12:20;;;;;;;3.37;1.60;;;7.70;99.90;;;;;;4981274;28;20204;-59
2021/12/02 01:14:46;;;;;;;4.20;1.80;;;7.70;99.90;;;;;;4980675;28;20904;-56
2021/12/02 01:17:12;;;;;;;2.13;1.50;;;7.70;99.90;;;;;;4980643;28;20209;-58
2021/12/02 01:19:38;;;;;;;1.60;1.50;;;7.70;99.90;;;;;;4979047;28;20967;-56
2021/12/02 01:22:04;;;;;;;2.63;1.90;;;7.60;99.90;;;;;;4979764;28;20189;-60
2021/12/02 01:24:30;;;;;;;7.00;2.30;;;7.60;99.90;;;;;;4977684;28;20206;-59
2021/12/02 01:26:57;;;;;;;3.50;1.87;;;7.70;99.90;;;;;;4979367;28;20503;-59
2021/12/02 01:29:25;;;;;;;3.30;1.90;;;7.60;99.90;;;;;;4979413;28;20609;-59
2021/12/02 01:31:58;;;;;;;3.07;2.20;;;7.60;99.90;;;;;;4980915;28;20436;-57
2021/12/02 01:34:26;;;;;;;4.60;2.40;;;7.70;99.90;;;;;;4980849;28;20464;-58
2021/12/02 01:36:53;;;;;;;5.03;2.53;;;7.70;99.90;;;;;;4978114;28;20475;-58
2021/12/02 01:39:20;;;;;;;2.50;1.67;;;7.60;99.90;;;;;;4979065;28;21155;-59
2021/12/02 01:41:54;;;;;;;6.80;2.27;;;7.50;99.90;;;;;;4975720;28;20453;-60
2021/12/02 01:44:21;;;;;;;2.10;1.83;;;7.50;99.90;;;;;;4982493;28;20437;-57
2021/12/02 01:46:49;;;;;;;2.17;1.60;;;7.40;99.90;;;;;;4977027;28;20928;-59
2021/12/02 01:49:17;;;;;;;3.30;1.80;;;7.40;99.90;;;;;;4967009;28;20470;-56
2021/12/02 01:51:45;;;;;;;3.63;1.87;;;7.30;99.90;;;;;;4982616;28;20483;-60
2021/12/02 01:54:17;;;;;;;1.90;1.70;;;7.30;99.90;;;;;;4976582;28;20437;-59
2021/12/02 01:57:09;;;;;;;4.63;2.33;;;7.30;99.90;;;;;;4979124;28;20444;-60
2021/12/02 01:59:38;;;;;;;3.60;1.80;;;7.20;99.90;;;;;;4980498;28;20457;-58
2021/12/02 02:02:09;;;;;;;2.57;1.70;;;7.30;99.90;;;;;;4980351;28;20429;-57
2021/12/02 02:04:35;;;;;;;3.10;1.93;;;7.20;99.90;;;;;;4977860;28;20884;-58
2021/12/02 02:07:10;;;;;;;3.20;1.53;;;7.20;99.90;;;;;;4979365;28;20468;-56
2021/12/02 02:09:35;;;;;;;1.70;1.53;;;7.20;99.90;;;;;;4977442;28;20208;-56
2021/12/02 02:12:06;;;;;;;13.03;2.43;;;7.10;99.90;;;;;;4979399;28;20874;-57
2021/12/02 02:14:32;;;;;;;1.80;1.40;;;7.00;99.90;;;;;;4978741;28;20330;-59
2021/12/02 02:17:00;;;;;;;3.20;1.53;;;7.00;99.90;;;;;;4979402;28;20997;-59
2021/12/02 02:19:30;;;;;;;2.50;1.60;;;7.00;99.90;;;;;;4979689;28;20980;-61
2021/12/02 02:21:56;;;;;;;1.83;1.30;;;7.00;99.90;;;;;;4975582;28;20449;-59
2021/12/02 02:24:23;;;;;;;2.63;1.40;;;6.90;99.90;;;;;;4964559;28;20516;-58
2021/12/02 02:26:49;;;;;;;3.90;1.47;;;6.80;99.90;;;;;;4980438;28;20206;-59
2021/12/02 02:29:17;;;;;;;2.43;1.60;;;6.80;99.90;;;;;;4979533;28;20493;-59
2021/12/02 02:31:44;;;;;;;2.50;1.40;;;6.90;99.90;;;;;;4977132;28;20433;-59
2021/12/02 02:34:12;;;;;;;3.10;1.43;;;6.80;99.90;;;;;;4978935;28;20489;-59
2021/12/02 02:36:41;;;;;;;1.60;1.40;;;6.80;99.90;;;;;;4978087;28;20433;-59
2021/12/02 02:39:08;;;;;;;1.50;1.30;;;6.80;99.90;;;;;;4976565;28;20459;-58
2021/12/02 02:41:39;;;;;;;3.63;1.50;;;6.70;99.90;;;;;;4977818;28;20518;-56
2021/12/02 02:44:06;;;;;;;5.03;1.80;;;6.70;99.90;;;;;;4977829;28;20428;-55
2021/12/02 02:46:34;;;;;;;4.20;1.50;;;6.70;99.90;;;;;;4978748;28;20537;-56
2021/12/02 02:49:04;;;;;;;4.43;1.70;;;6.70;99.90;;;;;;4980253;28;20496;-58
2021/12/02 02:51:31;;;;;;;1.80;1.50;;;6.70;99.90;;;;;;4977512;28;20433;-58
2021/12/02 02:54:00;;;;;;;2.23;1.47;;;6.80;99.90;;;;;;4975196;28;20433;-57
2021/12/02 02:56:31;;;;;;;1.63;1.40;;;6.80;99.90;;;;;;4980933;28;20429;-56
2021/12/02 03:06:53;;;;;;;2.53;1.60;;;6.80;99.90;;;;;;4975393;28;20839;-60
2021/12/02 03:17:30;;;;;;;4.53;1.60;;;6.90;99.90;;;;;;4978053;28;20444;-59
2021/12/02 03:19:55;;;;;;;2.13;1.27;;;6.80;99.90;;;;;;4974934;28;20438;-60
2021/12/02 03:22:21;;;;;;;5.83;2.20;;;6.80;99.90;;;;;;4976162;28;20440;-60
2021/12/02 03:24:47;;;;;;;4.03;1.60;;;6.80;99.90;;;;;;4975579;28;20255;-59
2021/12/02 03:27:13;;;;;;;5.17;1.60;;;6.80;99.90;;;;;;4975550;28;20311;-58
2021/12/02 03:29:40;;;;;;;4.83;1.30;;;6.80;99.90;;;;;;4975611;28;20285;-58
2021/12/02 03:32:07;;;;;;;5.87;1.60;;;6.80;99.90;;;;;;4976684;28;20827;-56
2021/12/02 03:34:33;;;;;;;5.00;1.40;;;6.90;99.90;;;;;;4976250;28;20464;-58
2021/12/02 03:36:59;;;;;;;3.27;1.30;;;6.90;99.90;;;;;;4977905;28;20536;-56
2021/12/02 03:39:26;;;;;;;3.37;1.37;;;6.90;99.90;;;;;;4976145;28;20202;-58
2021/12/02 03:41:52;;;;;;;4.17;1.33;;;6.80;99.90;;;;;;4976129;28;20456;-59
2021/12/02 03:44:18;;;;;;;2.73;2.50;;;6.80;99.90;;;;;;4979205;28;20435;-59
2021/12/02 03:46:43;;;;;;;3.33;1.90;;;6.80;99.90;;;;;;4976690;28;20468;-59
2021/12/02 03:49:09;;;;;;;3.13;1.37;;;6.80;99.90;;;;;;4977952;28;20232;-56
2021/12/02 03:51:35;;;;;;;2.20;1.30;;;6.80;99.90;;;;;;4975547;28;20237;-58
2021/12/02 03:54:01;;;;;;;3.40;1.37;;;6.90;99.90;;;;;;4976187;28;20429;-58
2021/12/02 03:56:27;;;;;;;2.07;1.30;;;6.90;99.90;;;;;;4976474;28;20229;-58
2021/12/02 03:58:53;;;;;;;4.33;1.47;;;6.80;99.90;;;;;;4979403;28;20467;-58
2021/12/02 04:01:21;;;;;;;2.80;1.57;;;6.90;99.90;;;;;;4973647;28;20194;-56
2021/12/02 04:03:47;;;;;;;1.97;1.40;;;6.90;99.90;;;;;;4977642;28;20475;-59
2021/12/02 04:06:14;;;;;;;5.23;1.60;;;6.90;99.90;;;;;;4979331;28;20456;-60
2021/12/02 04:11:44;;;;;;;4.30;1.60;;;7.00;99.90;;;;;;4977975;28;20442;-60
2021/12/02 04:14:27;;;;;;;4.77;1.40;;;7.00;99.90;;;;;;4962961;28;20997;-55
2021/12/02 04:16:54;;;;;;;4.50;1.57;;;7.00;99.90;;;;;;4976279;28;20433;-58
2021/12/02 04:19:22;;;;;;;1.70;1.40;;;6.90;99.90;;;;;;4977346;28;20841;-58
2021/12/02 04:21:48;;;;;;;2.27;1.30;;;7.00;99.90;;;;;;4976944;28;20516;-58
2021/12/02 04:24:13;;;;;;;3.77;1.60;;;6.90;99.90;;;;;;4976375;28;20998;-57
2021/12/02 04:26:40;;;;;;;1.93;1.40;;;6.90;99.90;;;;;;4976292;28;20491;-58
2021/12/02 04:29:06;;;;;;;1.90;1.30;;;6.90;99.90;;;;;;4975804;28;20292;-59
2021/12/02 04:31:31;;;;;;;2.53;1.20;;;6.90;99.90;;;;;;4979032;28;20421;-59
2021/12/02 04:33:57;;;;;;;2.37;1.50;;;6.90;99.90;;;;;;4981339;28;20433;-60
2021/12/02 04:36:23;;;;;;;1.50;1.20;;;7.00;99.90;;;;;;4986101;28;20182;-56
2021/12/02 04:38:48;;;;;;;6.87;1.90;;;7.00;99.90;;;;;;4985887;28;20667;-57
2021/12/02 04:41:16;;;;;;;1.80;1.57;;;7.00;99.90;;;;;;4978156;28;20197;-58
2021/12/02 04:43:42;;;;;;;2.83;1.97;;;7.00;99.90;;;;;;4985482;28;20325;-57
2021/12/02 04:46:08;;;;;;;3.67;1.70;;;7.00;99.90;;;;;;4983954;28;20689;-58
2021/12/02 04:48:33;;;;;;;3.20;1.80;;;7.00;99.90;;;;;;4983862;28;20243;-58
2021/12/02 04:50:59;;;;;;;2.23;1.63;;;7.00;99.90;;;;;;4984221;28;20286;-55
2021/12/02 04:53:25;;;;;;;3.50;1.87;;;7.00;99.90;;;;;;4984446;28;21177;-59
2021/12/02 04:55:50;;;;;;;2.53;1.70;;;7.00;99.90;;;;;;4981773;28;20201;-58
2021/12/02 04:58:16;;;;;;;2.73;1.43;;;6.90;99.90;;;;;;4983158;28;20232;-59
2021/12/02 05:00:41;;;;;;;2.47;1.67;;;6.90;99.90;;;;;;4981158;28;20194;-58
2021/12/02 05:03:07;;;;;;;3.17;1.60;;;6.90;99.90;;;;;;4983732;28;20189;-58
2021/12/02 05:05:33;;;;;;;3.53;2.13;;;6.90;99.90;;;;;;4982543;28;21082;-59
2021/12/02 05:08:00;;;;;;;3.27;1.50;;;6.90;99.90;;;;;;4966402;28;20713;-59
2021/12/02 05:10:26;;;;;;;2.73;1.67;;;6.90;99.90;;;;;;4983826;28;20483;-59
2021/12/02 05:12:52;;;;;;;5.00;1.53;;;6.90;99.90;;;;;;4982606;28;20843;-59
2021/12/02 05:15:18;;;;;;;3.80;1.73;;;6.90;99.90;;;;;;4981715;28;20444;-55
2021/12/02 05:17:44;;;;;;;3.40;1.50;;;6.90;99.90;;;;;;4984853;28;20452;-59
2021/12/02 05:20:10;;;;;;;3.07;1.67;;;6.90;99.90;;;;;;4982741;28;20428;-58
2021/12/02 05:22:36;;;;;;;10.90;3.60;;;6.90;99.90;;;;;;4983194;28;20185;-60
2021/12/02 05:25:01;;;;;;;3.00;1.77;;;6.80;99.90;;;;;;4981536;28;20441;-58
2021/12/02 05:27:27;;;;;;;2.80;1.53;;;6.80;99.90;;;;;;4985137;28;20263;-59
2021/12/02 05:29:53;;;;;;;5.93;2.60;;;6.70;99.90;;;;;;4980180;28;20911;-60
2021/12/02 05:32:18;;;;;;;3.03;1.70;;;6.70;99.90;;;;;;4982326;28;20189;-59
2021/12/02 05:34:47;;;;;;;2.27;1.30;;;6.80;99.90;;;;;;4980960;28;20187;-59
2021/12/02 05:37:13;;;;;;;3.97;1.70;;;6.70;99.90;;;;;;4984753;28;20182;-60
2021/12/02 05:39:39;;;;;;;1.83;1.30;;;6.70;99.90;;;;;;4980517;28;20476;-60
2021/12/02 05:42:05;;;;;;;5.40;1.90;;;6.80;99.90;;;;;;4982511;28;20437;-60
2021/12/02 05:44:31;;;;;;;2.07;1.40;;;6.70;99.90;;;;;;4981919;28;20236;-58
2021/12/02 05:46:56;;;;;;;2.00;1.77;;;6.70;99.90;;;;;;4980057;28;20253;-59
2021/12/02 05:49:22;;;;;;;2.10;1.40;;;6.60;99.90;;;;;;4979071;28;20225;-60
2021/12/02 05:51:47;;;;;;;2.63;1.60;;;6.60;99.90;;;;;;4981000;28;20229;-60
2021/12/02 05:54:13;;;;;;;4.13;1.70;;;6.60;99.90;;;;;;4968467;28;20218;-60
2021/12/02 05:56:40;;;;;;;7.57;2.90;;;6.70;99.90;;;;;;4981526;28;20196;-60
2021/12/02 05:59:06;;;;;;;4.77;1.90;;;6.60;99.90;;;;;;4981726;28;20260;-60
2021/12/02 06:01:32;;;;;;;4.53;1.50;;;6.60;99.90;;;;;;4979337;28;20444;-59
2021/12/02 06:03:58;;;;;;;2.73;1.43;;;6.60;99.90;;;;;;4979183;28;20433;-58
2021/12/02 06:06:25;;;;;;;5.70;2.07;;;6.70;99.90;;;;;;4981634;28;20472;-60
2021/12/02 06:08:50;;;;;;;2.67;1.80;;;6.70;99.90;;;;;;4976383;28;20229;-59
2021/12/02 06:11:16;;;;;;;3.30;1.93;;;6.60;99.90;;;;;;4976352;28;20469;-57
2021/12/02 06:13:42;;;;;;;2.20;1.73;;;6.60;99.90;;;;;;4980186;28;21036;-59
2021/12/02 06:16:08;;;;;;;1.83;1.30;;;6.60;99.90;;;;;;4979928;28;20312;-59
2021/12/02 06:18:34;;;;;;;2.33;1.60;;;6.60;99.90;;;;;;4975925;28;20556;-58
2021/12/02 06:21:00;;;;;;;2.60;1.60;;;6.60;99.90;;;;;;4976373;28;20285;-59
2021/12/02 06:23:25;;;;;;;2.53;1.63;;;6.70;99.90;;;;;;4976528;28;20466;-60
2021/12/02 06:25:51;;;;;;;1.90;1.67;;;6.70;99.90;;;;;;4976696;28;20302;-58
2021/12/02 06:28:18;;;;;;;3.77;1.87;;;6.70;99.90;;;;;;4975419;28;20460;-59
2021/12/02 06:30:44;;;;;;;2.53;1.50;;;6.70;99.90;;;;;;4971949;28;20947;-59
2021/12/02 06:33:11;;;;;;;2.40;1.80;;;6.70;99.90;;;;;;4976695;28;20520;-60
2021/12/02 06:35:36;;;;;;;4.27;1.87;;;6.70;99.90;;;;;;4975748;28;20516;-60
2021/12/02 06:38:02;;;;;;;2.40;1.70;;;6.70;99.90;;;;;;4976740;28;20900;-59
2021/12/02 06:40:28;;;;;;;3.07;2.07;;;6.70;99.90;;;;;;4975813;28;20617;-58
2021/12/02 06:42:54;;;;;;;3.90;1.70;;;6.70;99.90;;;;;;4978495;28;20493;-60
2021/12/02 06:45:20;;;;;;;2.50;1.67;;;6.70;99.90;;;;;;4975878;28;20939;-59
2021/12/02 06:47:47;;;;;;;2.53;1.53;;;6.60;99.90;;;;;;4975922;28;20572;-59
2021/12/02 06:50:17;;;;;;;6.50;1.50;;;6.70;99.90;;;;;;4978985;28;20192;-60
2021/12/02 06:52:44;;;;;;;5.63;3.40;;;6.70;99.90;;;;;;4978291;28;20476;-58
2021/12/02 06:55:11;;;;;;;3.70;1.93;;;6.70;99.90;;;;;;4982025;28;20807;-59
2021/12/02 06:57:36;;;;;;;3.07;1.70;;;6.70;99.90;;;;;;4974984;28;20437;-61
2021/12/02 07:00:07;;;;;;;2.50;1.43;;;6.70;99.90;;;;;;4977279;28;21136;-61
2021/12/02 07:02:33;;;;;;;2.90;1.70;;;6.60;99.90;;;;;;4962447;28;20840;-59
2021/12/02 07:04:59;;;;;;;5.53;1.93;;;6.70;99.90;;;;;;4972500;28;20843;-59
2021/12/02 07:07:30;;;;;;;2.83;1.83;;;6.50;99.90;;;;;;4976576;28;20520;-59
2021/12/02 07:09:55;;;;;;;1.73;1.50;;;6.60;99.90;;;;;;4979242;28;20314;-59
2021/12/02 07:12:28;;;;;;;2.50;2.30;;;6.60;99.90;;;;;;4977149;28;20601;-59
2021/12/02 07:14:54;;;;;;;2.93;1.83;;;6.60;99.90;;;;;;4977573;28;20227;-58
2021/12/02 07:17:20;;;;;;;4.70;1.90;;;6.60;99.90;;;;;;4975660;28;20868;-60
2021/12/02 07:19:45;;;;;;;3.57;2.13;;;6.70;99.90;;;;;;4973274;28;20215;-60
2021/12/02 07:22:11;;;;;;;2.90;2.30;;;6.70;99.90;;;;;;4980621;28;20329;-59
2021/12/02 07:24:36;;;;;;;3.20;1.83;;;6.70;99.90;;;;;;4977948;28;20194;-59
2021/12/02 07:27:02;;;;;;;3.80;2.20;;;6.70;99.90;;;;;;4961717;28;20201;-60
2021/12/02 07:29:28;;;;;;;4.47;2.23;;;6.80;99.90;;;;;;4976092;28;20210;-60
2021/12/02 07:31:55;;;;;;;2.33;1.80;;;6.80;99.90;;;;;;4973933;28;20480;-59
2021/12/02 07:34:23;;;;;;;3.70;2.13;;;6.70;99.90;;;;;;4973909;28;20258;-59
2021/12/02 07:36:51;;;;;;;3.20;2.10;;;6.80;99.90;;;;;;4976487;28;20898;-60
2021/12/02 07:39:18;;;;;;;4.10;2.50;;;6.80;99.90;;;;;;4977119;28;20507;-55
2021/12/02 07:41:44;;;;;;;2.70;2.23;;;6.80;99.90;;;;;;4975491;28;20469;-57
2021/12/02 07:44:11;;;;;;;3.53;2.27;;;6.80;99.90;;;;;;4979240;28;20822;-61
2021/12/02 07:46:37;;;;;;;3.10;2.60;;;6.80;99.90;;;;;;4977519;28;20474;-59
2021/12/02 07:49:03;;;;;;;2.97;2.50;;;6.80;99.90;;;;;;4975150;28;20809;-60
2021/12/02 07:51:30;;;;;;;3.60;2.27;;;6.80;99.90;;;;;;4974460;28;20196;-60
2021/12/02 07:53:58;;;;;;;8.33;2.50;;;6.80;99.90;;;;;;4974723;28;20196;-59
2021/12/02 07:56:25;;;;;;;2.90;2.30;;;6.80;99.90;;;;;;4976002;28;20540;-60
2021/12/02 07:58:50;;;;;;;3.80;3.00;;;6.80;99.90;;;;;;4975622;28;20505;-58
2021/12/02 08:01:17;;;;;;;3.30;2.10;;;6.80;99.90;;;;;;4976493;28;20727;-55
2021/12/02 08:03:44;;;;;;;3.70;2.70;;;6.80;99.90;;;;;;4972956;28;20198;-56
2021/12/02 08:06:15;;;;;;;3.00;2.50;;;6.80;99.90;;;;;;4978595;28;20472;-53
2021/12/02 08:08:41;;;;;;;5.00;2.40;;;6.80;99.90;;;;;;4971605;28;20468;-58
2021/12/02 08:11:08;;;;;;;3.40;2.40;;;6.80;99.90;;;;;;4977758;28;20436;-57
2021/12/02 08:13:34;;;;;;;6.67;3.30;;;6.80;99.90;;;;;;4975704;28;20790;-58
2021/12/02 08:16:02;;;;;;;4.40;3.10;;;6.80;99.90;;;;;;4970205;28;20445;-56
2021/12/02 08:18:28;;;;;;;2.80;2.50;;;6.80;99.90;;;;;;4978339;28;20466;-56
2021/12/02 08:20:54;;;;;;;3.70;2.70;;;6.90;99.90;;;;;;4972626;28;20442;-54
2021/12/02 08:23:20;;;;;;;3.87;3.13;;;6.80;99.90;;;;;;4977045;28;21547;-55
2021/12/02 08:25:46;;;;;;;4.17;3.27;;;6.70;99.90;;;;;;4978295;28;20438;-55
2021/12/02 08:28:12;;;;;;;5.77;2.80;;;6.70;99.90;;;;;;4977598;28;20450;-56
2021/12/02 08:30:38;;;;;;;4.37;2.60;;;6.60;99.90;;;;;;4975193;28;20227;-52
2021/12/02 08:33:05;;;;;;;3.73;3.33;;;6.60;99.90;;;;;;4977702;28;20605;-55
2021/12/02 08:35:32;;;;;;;4.37;2.70;;;6.40;99.90;;;;;;4976013;28;20429;-54
2021/12/02 08:38:02;;;;;;;3.27;2.53;;;6.30;99.90;;;;;;4977248;28;20452;-56
2021/12/02 08:40:33;;;;;;;5.53;2.40;;;6.20;99.90;;;;;;4974656;28;20440;-56
2021/12/02 08:43:01;;;;;;;5.60;2.90;;;6.20;99.90;;;;;;4976217;28;20866;-55
2021/12/02 08:45:28;;;;;;;4.20;2.87;;;6.20;99.90;;;;;;4977651;28;20429;-56
2021/12/02 08:47:55;;;;;;;11.07;2.80;;;6.20;99.90;;;;;;4975489;28;20571;-55
2021/12/02 08:50:22;;;;;;;2.77;2.13;;;6.10;99.90;;;;;;4977680;28;20511;-57
2021/12/02 08:52:49;;;;;;;2.20;1.90;;;6.10;99.90;;;;;;4977891;28;20437;-58
2021/12/02 08:55:16;;;;;;;2.60;2.40;;;6.10;99.90;;;;;;4975644;28;20535;-57
2021/12/02 08:57:42;;;;;;;1.93;1.73;;;6.10;99.90;;;;;;4975939;28;20456;-58
2021/12/02 09:00:12;;;;;;;1.87;1.53;;;6.20;99.90;;;;;;4976873;28;20531;-58
2021/12/02 09:02:37;;;;;;;2.30;1.93;;;6.10;99.90;;;;;;4978003;28;20190;-57
2021/12/02 09:05:04;;;;;;;4.53;2.20;;;6.10;99.90;;;;;;4973087;28;20954;-56
2021/12/02 09:07:31;;;;;;;2.30;1.90;;;6.10;99.90;;;;;;4974312;28;20590;-54
2021/12/02 09:09:56;;;;;;;2.43;1.90;;;6.10;99.90;;;;;;4976217;28;21159;-58
2021/12/02 09:12:23;;;;;;;1.93;1.50;;;6.20;99.90;;;;;;4976088;28;20436;-54
2021/12/02 09:14:49;;;;;;;2.20;1.73;;;6.10;99.90;;;;;;4979554;28;20186;-53
2021/12/02 09:17:14;;;;;;;4.00;1.80;;;6.10;99.90;;;;;;4976285;28;21250;-55
2021/12/02 09:19:40;;;;;;;2.23;1.73;;;6.10;99.90;;;;;;4978134;28;20217;-58
2021/12/02 09:22:06;;;;;;;2.20;1.70;;;5.90;99.90;;;;;;4976371;28;20202;-56
2021/12/02 09:24:31;;;;;;;1.90;1.70;;;6.10;99.90;;;;;;4980360;28;20194;-57
2021/12/02 09:26:57;;;;;;;3.03;2.00;;;6.20;99.90;;;;;;4979654;28;20226;-58
2021/12/02 09:29:24;;;;;;;2.80;1.90;;;6.20;99.90;;;;;;4977463;28;20266;-59
2021/12/02 09:31:52;;;;;;;2.40;1.80;;;6.20;99.90;;;;;;4975491;28;20454;-57
2021/12/02 09:34:17;;;;;;;2.70;1.97;;;6.40;99.90;;;;;;4979368;28;20429;-57
2021/12/02 09:36:46;;;;;;;3.50;1.80;;;6.30;99.90;;;;;;4980940;28;20437;-57
2021/12/02 09:39:13;;;;;;;5.13;2.50;;;6.40;99.90;;;;;;4978228;28;20206;-58
2021/12/02 09:41:40;;;;;;;6.40;2.80;;;6.50;99.90;;;;;;4978278;28;20487;-57
2021/12/02 09:44:08;;;;;;;7.53;2.10;;;6.50;99.90;;;;;;4978913;28;20452;-57
2021/12/02 09:46:34;;;;;;;2.77;2.00;;;6.70;99.90;;;;;;4980566;28;20496;-56
2021/12/02 09:49:03;;;;;;;2.40;2.20;;;6.60;99.90;;;;;;4965161;28;20990;-58
2021/12/02 09:51:40;;;;;;;3.03;2.20;;;6.60;99.90;;;;;;4977306;28;20418;-57
2021/12/02 09:54:41;;;;;;;2.57;2.13;;;6.70;99.90;;;;;;4982418;28;20441;-58
2021/12/02 09:57:02;;;;;;;3.30;2.37;;;6.60;99.90;;;;;;4975102;28;21257;-54
2021/12/02 09:59:39;;;;;;;3.93;2.10;;;6.70;99.90;;;;;;4978623;28;20472;-52
2021/12/02 10:02:08;;;;;;;2.10;1.90;;;6.60;99.90;;;;;;4979341;28;20456;-52
2021/12/02 10:05:12;;;;;;;2.60;2.13;;;6.60;99.90;;;;;;4964951;28;20974;-59
2021/12/02 10:07:46;;;;;;;4.80;2.50;;;6.70;99.90;;;;;;4978651;28;20472;-57
2021/12/02 10:13:22;;;;;;;2.53;1.90;;;6.70;99.90;;;;;;4959384;28;21273;-52
2021/12/02 10:16:24;;;;;;;2.27;1.90;;;6.60;99.90;;;;;;4973026;28;20541;-58
2021/12/02 10:21:37;;;;;;;3.60;2.20;;;6.50;99.90;;;;;;4967977;28;20437;-56
2021/12/02 10:24:07;;;;;;;2.27;1.93;;;6.60;99.90;;;;;;4978251;28;20778;-58
2021/12/02 10:26:36;;;;;;;4.30;2.10;;;6.60;99.90;;;;;;4980745;28;20469;-58
2021/12/02 10:29:12;;;;;;;2.90;2.00;;;6.50;99.90;;;;;;4965379;28;21062;-56
2021/12/02 10:31:38;;;;;;;2.27;1.90;;;6.50;99.90;;;;;;4973774;28;20880;-55
2021/12/02 10:34:07;;;;;;;3.10;2.23;;;6.40;99.90;;;;;;4977920;28;20430;-56
2021/12/02 10:36:42;;;;;;;2.73;2.20;;;6.30;99.90;;;;;;4976103;28;20445;-58
2021/12/02 10:39:19;;;;;;;3.40;2.20;;;6.30;99.90;;;;;;4980853;28;20479;-56
2021/12/02 10:41:46;;;;;;;6.23;2.60;;;6.30;99.90;;;;;;4974693;28;20822;-54
2021/12/02 10:44:24;;;;;;;2.50;2.30;;;6.30;99.90;;;;;;4975004;28;20946;-56
2021/12/02 10:46:57;;;;;;;6.60;2.40;;;6.30;99.90;;;;;;4977511;28;20843;-58
2021/12/02 10:49:24;;;;;;;2.87;2.57;;;6.40;99.90;;;;;;4974054;28;20460;-56
2021/12/02 10:51:52;;;;;;;2.83;1.80;;;6.40;99.90;;;;;;4980461;28;20448;-55
2021/12/02 10:54:30;;;;;;;2.20;1.83;;;6.40;99.90;;;;;;4966496;28;20442;-61
2021/12/02 10:56:59;;;;;;;5.60;2.37;;;6.40;99.90;;;;;;4976949;28;20957;-57
2021/12/02 10:59:49;;;;;;;4.20;2.30;;;6.40;99.90;;;;;;4977861;28;20547;-55
2021/12/02 11:02:29;;;;;;;2.93;2.20;;;6.50;99.90;;;;;;4976006;28;20442;-57
2021/12/02 11:05:24;;;;;;;2.27;1.93;;;6.50;99.90;;;;;;4973560;28;20457;-57
2021/12/02 11:08:01;;;;;;;4.27;3.00;;;6.40;99.90;;;;;;4977316;28;20465;-54
2021/12/02 11:10:35;;;;;;;2.97;2.40;;;6.40;99.90;;;;;;4976222;28;20451;-56
2021/12/02 11:13:01;;;;;;;7.03;3.60;;;6.40;99.90;;;;;;4978543;28;20792;-57
2021/12/02 11:15:29;;;;;;;5.17;3.07;;;6.40;99.90;;;;;;4977205;28;20663;-58
2021/12/02 11:18:04;;;;;;;4.23;2.80;;;6.40;99.90;;;;;;4977722;28;20463;-55
2021/12/02 11:20:37;;;;;;;3.10;2.53;;;6.50;99.90;;;;;;4959194;28;21304;-57
2021/12/02 11:23:19;;;;;;;6.40;3.43;;;6.60;99.90;;;;;;4975839;28;20449;-53
2021/12/02 11:25:59;;;;;;;4.20;3.47;;;6.90;99.90;;;;;;4978824;28;20484;-54
2021/12/02 11:28:27;;;;;;;7.43;3.97;;;6.90;99.90;;;;;;4977448;28;20499;-55
2021/12/02 11:30:53;;;;;;;6.37;3.20;;;7.10;99.90;;;;;;4978434;28;20460;-57
2021/12/02 11:33:19;;;;;;;4.23;3.50;;;7.20;99.90;;;;;;4976095;28;20430;-54
2021/12/02 11:35:47;;;;;;;3.13;2.83;;;7.20;99.90;;;;;;4976971;28;20441;-59
2021/12/02 11:38:21;;;;;;;3.93;2.87;;;7.20;99.90;;;;;;4976378;28;20453;-56
2021/12/02 11:40:58;;;;;;;3.73;3.10;;;7.20;99.90;;;;;;4953412;28;20817;-60
2021/12/02 11:43:31;;;;;;;4.27;3.20;;;7.20;99.90;;;;;;4973007;28;20458;-60
2021/12/02 11:45:59;;;;;;;3.23;2.40;;;7.10;99.90;;;;;;4979517;28;20819;-60
2021/12/02 11:48:32;;;;;;;4.63;2.87;;;7.20;99.90;;;;;;4976603;28;20531;-60
2021/12/02 11:51:04;;;;;;;4.30;2.70;;;7.20;99.90;;;;;;4976740;28;20528;-60
2021/12/02 11:53:30;;;;;;;2.90;2.43;;;7.20;99.90;;;;;;4977376;28;20699;-60
2021/12/02 11:55:59;;;;;;;4.00;2.20;;;7.20;99.90;;;;;;4975299;28;20523;-60
2021/12/02 11:58:26;;;;;;;3.27;2.80;;;7.20;99.90;;;;;;4977176;28;20461;-60
2021/12/02 12:00:52;;;;;;;3.57;2.10;;;7.20;99.90;;;;;;4974778;28;20512;-60
2021/12/02 12:03:38;;;;;;;4.20;2.77;;;7.30;99.90;;;;;;4976663;28;20448;-60
2021/12/02 12:06:24;;;;;;;7.10;2.70;;;7.30;99.90;;;;;;4973868;28;20881;-61
2021/12/02 12:08:52;;;;;;;5.17;3.10;;;7.20;99.90;;;;;;4959473;28;20457;-60
2021/12/02 12:11:30;;;;;;;3.73;2.50;;;7.20;99.90;;;;;;4972660;28;20473;-60
2021/12/02 12:13:57;;;;;;;4.00;2.20;;;7.20;99.90;;;;;;4974176;28;20440;-61
2021/12/02 12:16:30;;;;;;;3.80;2.00;;;7.20;99.90;;;;;;4977272;28;20442;-62
2021/12/02 12:19:13;;;;;;;4.33;2.00;;;7.00;99.90;;;;;;4974026;28;20532;-59
2021/12/02 12:21:40;;;;;;;2.23;1.83;;;6.80;99.90;;;;;;4975690;28;20463;-60
2021/12/02 12:24:07;;;;;;;2.90;1.73;;;6.70;99.90;;;;;;4972651;28;20447;-60
2021/12/02 12:26:39;;;;;;;4.23;2.30;;;6.70;99.90;;;;;;4979265;28;20500;-60
2021/12/02 12:29:08;;;;;;;2.37;1.80;;;6.70;99.90;;;;;;4978000;28;20495;-60
2021/12/02 12:31:42;;;;;;;7.37;2.67;;;6.70;99.90;;;;;;4977262;28;20441;-61
2021/12/02 12:34:43;;;;;;;5.00;2.37;;;6.90;99.90;;;;;;4975738;28;20496;-60
2021/12/02 12:37:28;;;;;;;2.50;1.73;;;7.00;99.90;;;;;;4977131;28;20798;-61
2021/12/02 12:40:10;;;;;;;2.37;1.90;;;7.00;99.90;;;;;;4975454;28;20441;-60
2021/12/02 12:42:39;;;;;;;2.37;1.97;;;7.00;99.90;;;;;;4975603;28;20524;-60
2021/12/02 12:45:08;;;;;;;3.77;1.93;;;7.00;99.90;;;;;;4980659;28;20441;-60
2021/12/02 12:47:39;;;;;;;2.80;1.90;;;7.00;99.90;;;;;;4976054;28;20472;-61
2021/12/02 12:50:36;;;;;;;3.70;1.80;;;6.90;99.90;;;;;;4978077;28;20454;-60
2021/12/02 12:53:05;;;;;;;2.27;1.50;;;6.90;99.90;;;;;;4967389;28;20463;-60
2021/12/02 12:55:39;;;;;;;5.53;3.07;;;6.90;99.90;;;;;;4960995;28;20437;-60
2021/12/02 12:58:08;;;;;;;2.93;1.70;;;7.20;99.90;;;;;;4981885;28;20568;-60
2021/12/02 13:00:36;;;;;;;3.17;1.90;;;7.20;99.90;;;;;;4978784;28;20449;-59
2021/12/02 13:03:14;;;;;;;1.97;1.77;;;7.10;99.90;;;;;;4978819;28;20467;-59
2021/12/02 13:05:50;;;;;;;3.30;2.03;;;7.10;99.90;;;;;;4980382;28;21048;-60
2021/12/02 13:08:17;;;;;;;4.73;1.57;;;7.10;99.90;;;;;;4981352;28;20460;-59
2021/12/02 13:10:49;;;;;;;1.83;1.40;;;7.20;99.90;;;;;;4979408;28;20970;-59
2021/12/02 13:13:25;;;;;;;5.47;1.80;;;6.90;99.90;;;;;;4980478;28;20441;-60
2021/12/02 13:15:52;;;;;;;1.63;1.33;;;6.70;99.90;;;;;;4974144;28;20428;-60
2021/12/02 13:18:34;;;;;;;1.77;1.20;;;6.60;99.90;;;;;;4972238;28;20565;-60
2021/12/02 13:21:28;;;;;;;4.90;2.27;;;6.60;99.90;;;;;;4977296;28;20445;-59
2021/12/02 13:24:17;;;;;;;2.70;1.40;;;6.60;99.90;;;;;;4973035;28;20417;-58
2021/12/02 13:26:55;;;;;;;2.43;1.23;;;6.50;99.90;;;;;;4979418;28;20468;-59
2021/12/02 13:29:27;;;;;;;2.27;1.53;;;6.50;99.90;;;;;;4975300;28;20462;-60
2021/12/02 13:31:58;;;;;;;5.57;1.47;;;6.50;99.90;;;;;;4981147;28;20502;-60
2021/12/02 13:34:27;;;;;;;2.33;1.40;;;6.60;99.90;;;;;;4980273;28;20448;-59
2021/12/02 13:37:00;;;;;;;1.50;1.40;;;6.60;99.90;;;;;;4980388;28;20907;-59